<?xml version="1.0" encoding="UTF-8" standalone="no" ?><gpx xmlns="http://www.topografix.com/GPX/1/1" xmlns:gpxx="http://www.garmin.com/xmlschemas/GpxExtensions/v3" xmlns:wptx1="http://www.garmin.com/xmlschemas/WaypointExtension/v1" xmlns:gpxtpx="http://www.garmin.com/xmlschemas/TrackPointExtension/v1" creator="GuideVTT.com" version="1.1" xmlns:xsi="http://www.w3.org/2001/XMLSchema-instance" xsi:schemaLocation="http://www.topografix.com/GPX/1/1 http://www.topografix.com/GPX/1/1/gpx.xsd http://www.garmin.com/xmlschemas/GpxExtensions/v3 http://www8.garmin.com/xmlschemas/GpxExtensionsv3.xsd http://www.garmin.com/xmlschemas/WaypointExtension/v1 http://www8.garmin.com/xmlschemas/WaypointExtensionv1.xsd http://www.garmin.com/xmlschemas/TrackPointExtension/v1 http://www.garmin.com/xmlschemas/TrackPointExtensionv1.xsd">
<metadata><link href="http://www.garmin.com"><text>Garmin International</text></link><time>2013-06-22T15:13:50Z</time></metadata>
<trk><name>saxon-randoplaisir.gpx</name><extensions><gpxx:TrackExtension><gpxx:DisplayColor>Cyan</gpxx:DisplayColor></gpxx:TrackExtension></extensions><trkseg>
<trkpt lat="46.15380124" lon="7.18850859"><ele>467.818726</ele><time>2008-07-04T16:45:41Z</time></trkpt>
<trkpt lat="46.15381340" lon="7.18852317"><ele>467.818726</ele><time>2008-07-04T16:45:45Z</time></trkpt>
<trkpt lat="46.15390409" lon="7.18871176"><ele>467.338135</ele><time>2008-07-04T16:45:51Z</time></trkpt>
<trkpt lat="46.15409201" lon="7.18917226"><ele>467.818726</ele><time>2008-07-04T16:45:58Z</time></trkpt>
<trkpt lat="46.15443726" lon="7.18995580"><ele>468.780029</ele><time>2008-07-04T16:46:08Z</time></trkpt>
<trkpt lat="46.15472635" lon="7.19070070"><ele>468.780029</ele><time>2008-07-04T16:46:17Z</time></trkpt>
<trkpt lat="46.15515425" lon="7.19177082"><ele>469.260742</ele><time>2008-07-04T16:46:29Z</time></trkpt>
<trkpt lat="46.15557888" lon="7.19283113"><ele>469.260742</ele><time>2008-07-04T16:46:40Z</time></trkpt>
<trkpt lat="46.15585481" lon="7.19351250"><ele>469.260742</ele><time>2008-07-04T16:46:48Z</time></trkpt>
<trkpt lat="46.15613569" lon="7.19420199"><ele>469.260742</ele><time>2008-07-04T16:46:56Z</time></trkpt>
<trkpt lat="46.15662167" lon="7.19532751"><ele>469.260742</ele><time>2008-07-04T16:47:08Z</time></trkpt>
<trkpt lat="46.15718669" lon="7.19653694"><ele>469.260742</ele><time>2008-07-04T16:47:21Z</time></trkpt>
<trkpt lat="46.15771509" lon="7.19765207"><ele>469.260742</ele><time>2008-07-04T16:47:33Z</time></trkpt>
<trkpt lat="46.15814902" lon="7.19858975"><ele>469.260742</ele><time>2008-07-04T16:47:42Z</time></trkpt>
<trkpt lat="46.15869828" lon="7.19975467"><ele>469.260742</ele><time>2008-07-04T16:47:53Z</time></trkpt>
<trkpt lat="46.15923037" lon="7.20087935"><ele>469.741333</ele><time>2008-07-04T16:48:04Z</time></trkpt>
<trkpt lat="46.15950529" lon="7.20143968"><ele>469.741333</ele><time>2008-07-04T16:48:10Z</time></trkpt>
<trkpt lat="46.15932517" lon="7.20197001"><ele>469.741333</ele><time>2008-07-04T16:48:16Z</time></trkpt>
<trkpt lat="46.15925283" lon="7.20226580"><ele>469.741333</ele><time>2008-07-04T16:48:19Z</time></trkpt>
<trkpt lat="46.15935652" lon="7.20250335"><ele>469.260742</ele><time>2008-07-04T16:48:22Z</time></trkpt>
<trkpt lat="46.15977804" lon="7.20349786"><ele>468.780029</ele><time>2008-07-04T16:48:32Z</time></trkpt>
<trkpt lat="46.16030225" lon="7.20469479"><ele>468.780029</ele><time>2008-07-04T16:48:43Z</time></trkpt>
<trkpt lat="46.16052814" lon="7.20524289"><ele>468.780029</ele><time>2008-07-04T16:48:48Z</time></trkpt>
<trkpt lat="46.16057248" lon="7.20574463"><ele>468.780029</ele><time>2008-07-04T16:48:52Z</time></trkpt>
<trkpt lat="46.16051749" lon="7.20689949"><ele>469.741333</ele><time>2008-07-04T16:49:01Z</time></trkpt>
<trkpt lat="46.16044725" lon="7.20792040"><ele>470.221924</ele><time>2008-07-04T16:49:09Z</time></trkpt>
<trkpt lat="46.16035237" lon="7.20906755"><ele>470.702637</ele><time>2008-07-04T16:49:17Z</time></trkpt>
<trkpt lat="46.16028548" lon="7.21011462"><ele>470.702637</ele><time>2008-07-04T16:49:25Z</time></trkpt>
<trkpt lat="46.16023008" lon="7.21150392"><ele>472.144653</ele><time>2008-07-04T16:49:36Z</time></trkpt>
<trkpt lat="46.16029965" lon="7.21218503"><ele>472.625366</ele><time>2008-07-04T16:49:42Z</time></trkpt>
<trkpt lat="46.16053593" lon="7.21290831"><ele>473.106079</ele><time>2008-07-04T16:49:48Z</time></trkpt>
<trkpt lat="46.16092645" lon="7.21369511"><ele>472.625366</ele><time>2008-07-04T16:49:55Z</time></trkpt>
<trkpt lat="46.16155408" lon="7.21500269"><ele>472.144653</ele><time>2008-07-04T16:50:06Z</time></trkpt>
<trkpt lat="46.16195030" lon="7.21585186"><ele>471.66394</ele><time>2008-07-04T16:50:14Z</time></trkpt>
<trkpt lat="46.16230049" lon="7.21656483"><ele>471.66394</ele><time>2008-07-04T16:50:21Z</time></trkpt>
<trkpt lat="46.16258170" lon="7.21686792"><ele>471.66394</ele><time>2008-07-04T16:50:26Z</time></trkpt>
<trkpt lat="46.16228071" lon="7.21741333"><ele>472.625366</ele><time>2008-07-04T16:50:38Z</time></trkpt>
<trkpt lat="46.16210762" lon="7.21745264"><ele>473.106079</ele><time>2008-07-04T16:50:42Z</time></trkpt>
<trkpt lat="46.16170320" lon="7.21675878"><ele>473.106079</ele><time>2008-07-04T16:50:51Z</time></trkpt>
<trkpt lat="46.16131654" lon="7.21599804"><ele>473.58667</ele><time>2008-07-04T16:50:59Z</time></trkpt>
<trkpt lat="46.16107196" lon="7.21536730"><ele>475.509277</ele><time>2008-07-04T16:51:05Z</time></trkpt>
<trkpt lat="46.16064431" lon="7.21482910"><ele>474.547974</ele><time>2008-07-04T16:51:11Z</time></trkpt>
<trkpt lat="46.16020552" lon="7.21421085"><ele>474.547974</ele><time>2008-07-04T16:51:18Z</time></trkpt>
<trkpt lat="46.15991550" lon="7.21392604"><ele>474.067261</ele><time>2008-07-04T16:51:23Z</time></trkpt>
<trkpt lat="46.15935048" lon="7.21360325"><ele>473.58667</ele><time>2008-07-04T16:51:30Z</time></trkpt>
<trkpt lat="46.15905066" lon="7.21313520"><ele>473.106079</ele><time>2008-07-04T16:51:35Z</time></trkpt>
<trkpt lat="46.15877833" lon="7.21257806"><ele>472.625366</ele><time>2008-07-04T16:51:40Z</time></trkpt>
<trkpt lat="46.15862905" lon="7.21209249"><ele>474.067261</ele><time>2008-07-04T16:51:44Z</time></trkpt>
<trkpt lat="46.15837877" lon="7.21156209"><ele>474.067261</ele><time>2008-07-04T16:51:49Z</time></trkpt>
<trkpt lat="46.15803628" lon="7.21111768"><ele>474.547974</ele><time>2008-07-04T16:51:55Z</time></trkpt>
<trkpt lat="46.15791173" lon="7.21095976"><ele>475.028687</ele><time>2008-07-04T16:51:58Z</time></trkpt>
<trkpt lat="46.15771509" lon="7.21097267"><ele>474.547974</ele><time>2008-07-04T16:52:02Z</time></trkpt>
<trkpt lat="46.15748760" lon="7.21088978"><ele>474.547974</ele><time>2008-07-04T16:52:07Z</time></trkpt>
<trkpt lat="46.15741644" lon="7.21078894"><ele>475.028687</ele><time>2008-07-04T16:52:09Z</time></trkpt>
<trkpt lat="46.15716926" lon="7.21033942"><ele>478.393188</ele><time>2008-07-04T16:52:16Z</time></trkpt>
<trkpt lat="46.15712894" lon="7.21026792"><ele>479.354492</ele><time>2008-07-04T16:52:17Z</time></trkpt>
<trkpt lat="46.15693549" lon="7.21001588"><ele>484.161133</ele><time>2008-07-04T16:52:21Z</time></trkpt>
<trkpt lat="46.15688117" lon="7.20970768"><ele>483.68042</ele><time>2008-07-04T16:52:25Z</time></trkpt>
<trkpt lat="46.15689266" lon="7.20963031"><ele>483.68042</ele><time>2008-07-04T16:52:26Z</time></trkpt>
<trkpt lat="46.15693582" lon="7.20941431"><ele>483.68042</ele><time>2008-07-04T16:52:29Z</time></trkpt>
<trkpt lat="46.15697077" lon="7.20893386"><ele>486.564453</ele><time>2008-07-04T16:52:37Z</time></trkpt>
<trkpt lat="46.15695594" lon="7.20865063"><ele>489.448364</ele><time>2008-07-04T16:52:45Z</time></trkpt>
<trkpt lat="46.15682099" lon="7.20830882"><ele>491.370972</ele><time>2008-07-04T16:52:54Z</time></trkpt>
<trkpt lat="46.15669149" lon="7.20797271"><ele>494.735596</ele><time>2008-07-04T16:53:02Z</time></trkpt>
<trkpt lat="46.15656878" lon="7.20766844"><ele>496.658325</ele><time>2008-07-04T16:53:08Z</time></trkpt>
<trkpt lat="46.15641556" lon="7.20696235"><ele>498.100342</ele><time>2008-07-04T16:53:20Z</time></trkpt>
<trkpt lat="46.15634113" lon="7.20668256"><ele>499.061523</ele><time>2008-07-04T16:53:25Z</time></trkpt>
<trkpt lat="46.15629226" lon="7.20658139"><ele>499.542236</ele><time>2008-07-04T16:53:27Z</time></trkpt>
<trkpt lat="46.15600962" lon="7.20624897"><ele>499.061523</ele><time>2008-07-04T16:53:33Z</time></trkpt>
<trkpt lat="46.15573009" lon="7.20593096"><ele>496.177734</ele><time>2008-07-04T16:53:38Z</time></trkpt>
<trkpt lat="46.15555205" lon="7.20600698"><ele>496.177734</ele><time>2008-07-04T16:53:42Z</time></trkpt>
<trkpt lat="46.15542247" lon="7.20618409"><ele>496.658325</ele><time>2008-07-04T16:53:46Z</time></trkpt>
<trkpt lat="46.15536665" lon="7.20627646"><ele>498.100342</ele><time>2008-07-04T16:53:48Z</time></trkpt>
<trkpt lat="46.15514335" lon="7.20674819"><ele>498.100342</ele><time>2008-07-04T16:53:58Z</time></trkpt>
<trkpt lat="46.15492576" lon="7.20673587"><ele>499.542236</ele><time>2008-07-04T16:54:05Z</time></trkpt>
<trkpt lat="46.15476382" lon="7.20630588"><ele>502.906738</ele><time>2008-07-04T16:54:13Z</time></trkpt>
<trkpt lat="46.15453659" lon="7.20594320"><ele>505.310181</ele><time>2008-07-04T16:54:23Z</time></trkpt>
<trkpt lat="46.15430910" lon="7.20579190"><ele>505.310181</ele><time>2008-07-04T16:54:32Z</time></trkpt>
<trkpt lat="46.15407030" lon="7.20548647"><ele>509.636108</ele><time>2008-07-04T16:54:43Z</time></trkpt>
<trkpt lat="46.15376654" lon="7.20520073"><ele>515.404053</ele><time>2008-07-04T16:54:54Z</time></trkpt>
<trkpt lat="46.15341978" lon="7.20484885"><ele>520.210571</ele><time>2008-07-04T16:55:06Z</time></trkpt>
<trkpt lat="46.15321971" lon="7.20452322"><ele>522.613892</ele><time>2008-07-04T16:55:16Z</time></trkpt>
<trkpt lat="46.15316782" lon="7.20408954"><ele>528.381836</ele><time>2008-07-04T16:55:26Z</time></trkpt>
<trkpt lat="46.15300404" lon="7.20379382"><ele>531.265747</ele><time>2008-07-04T16:55:33Z</time></trkpt>
<trkpt lat="46.15292240" lon="7.20363633"><ele>531.746338</ele><time>2008-07-04T16:55:36Z</time></trkpt>
<trkpt lat="46.15277605" lon="7.20306510"><ele>531.746338</ele><time>2008-07-04T16:55:44Z</time></trkpt>
<trkpt lat="46.15271998" lon="7.20251609"><ele>528.862549</ele><time>2008-07-04T16:55:49Z</time></trkpt>
<trkpt lat="46.15250733" lon="7.20164026"><ele>524.536499</ele><time>2008-07-04T16:55:56Z</time></trkpt>
<trkpt lat="46.15222863" lon="7.20057375"><ele>525.497803</ele><time>2008-07-04T16:56:04Z</time></trkpt>
<trkpt lat="46.15192831" lon="7.19981552"><ele>525.497803</ele><time>2008-07-04T16:56:11Z</time></trkpt>
<trkpt lat="46.15181867" lon="7.19942040"><ele>526.939819</ele><time>2008-07-04T16:56:15Z</time></trkpt>
<trkpt lat="46.15182085" lon="7.19912552"><ele>528.381836</ele><time>2008-07-04T16:56:18Z</time></trkpt>
<trkpt lat="46.15168154" lon="7.19863619"><ele>529.34314</ele><time>2008-07-04T16:56:24Z</time></trkpt>
<trkpt lat="46.15158406" lon="7.19836797"><ele>528.862549</ele><time>2008-07-04T16:56:27Z</time></trkpt>
<trkpt lat="46.15144232" lon="7.19757521"><ele>529.34314</ele><time>2008-07-04T16:56:35Z</time></trkpt>
<trkpt lat="46.15131911" lon="7.19710766"><ele>531.265747</ele><time>2008-07-04T16:56:41Z</time></trkpt>
<trkpt lat="46.15119564" lon="7.19667147"><ele>535.110962</ele><time>2008-07-04T16:56:49Z</time></trkpt>
<trkpt lat="46.15109120" lon="7.19636989"><ele>536.072388</ele><time>2008-07-04T16:56:57Z</time></trkpt>
<trkpt lat="46.15095483" lon="7.19610686"><ele>537.033691</ele><time>2008-07-04T16:57:05Z</time></trkpt>
<trkpt lat="46.15078636" lon="7.19583261"><ele>539.43689</ele><time>2008-07-04T16:57:14Z</time></trkpt>
<trkpt lat="46.15056650" lon="7.19558794"><ele>540.878906</ele><time>2008-07-04T16:57:25Z</time></trkpt>
<trkpt lat="46.15034530" lon="7.19537118"><ele>543.762817</ele><time>2008-07-04T16:57:36Z</time></trkpt>
<trkpt lat="46.15023449" lon="7.19524680"><ele>546.16626</ele><time>2008-07-04T16:57:42Z</time></trkpt>
<trkpt lat="46.15038604" lon="7.19598885"><ele>548.569336</ele><time>2008-07-04T16:57:56Z</time></trkpt>
<trkpt lat="46.15047287" lon="7.19660986"><ele>550.972656</ele><time>2008-07-04T16:58:04Z</time></trkpt>
<trkpt lat="46.15054202" lon="7.19701513"><ele>553.856689</ele><time>2008-07-04T16:58:12Z</time></trkpt>
<trkpt lat="46.15068946" lon="7.19743850"><ele>555.298584</ele><time>2008-07-04T16:58:21Z</time></trkpt>
<trkpt lat="46.15086741" lon="7.19803973"><ele>556.740723</ele><time>2008-07-04T16:58:30Z</time></trkpt>
<trkpt lat="46.15113948" lon="7.19865329"><ele>560.105225</ele><time>2008-07-04T16:58:40Z</time></trkpt>
<trkpt lat="46.15116622" lon="7.19870467"><ele>560.585938</ele><time>2008-07-04T16:58:41Z</time></trkpt>
<trkpt lat="46.15138139" lon="7.20060057"><ele>565.873291</ele><time>2008-07-04T16:59:08Z</time></trkpt>
<trkpt lat="46.15140293" lon="7.20100801"><ele>568.75708</ele><time>2008-07-04T16:59:16Z</time></trkpt>
<trkpt lat="46.15136647" lon="7.20137648"><ele>571.1604</ele><time>2008-07-04T16:59:25Z</time></trkpt>
<trkpt lat="46.15145238" lon="7.20165971"><ele>572.602539</ele><time>2008-07-04T16:59:32Z</time></trkpt>
<trkpt lat="46.15172211" lon="7.20233277"><ele>572.602539</ele><time>2008-07-04T16:59:46Z</time></trkpt>
<trkpt lat="46.15172437" lon="7.20264290"><ele>573.083252</ele><time>2008-07-04T16:59:52Z</time></trkpt>
<trkpt lat="46.15169009" lon="7.20286167"><ele>573.563965</ele><time>2008-07-04T16:59:58Z</time></trkpt>
<trkpt lat="46.15168967" lon="7.20289956"><ele>573.563965</ele><time>2008-07-04T16:59:59Z</time></trkpt>
<trkpt lat="46.15176846" lon="7.20313534"><ele>578.851074</ele><time>2008-07-04T17:00:08Z</time></trkpt>
<trkpt lat="46.15185723" lon="7.20337884"><ele>584.618896</ele><time>2008-07-04T17:00:18Z</time></trkpt>
<trkpt lat="46.15195882" lon="7.20367597"><ele>588.945068</ele><time>2008-07-04T17:00:30Z</time></trkpt>
<trkpt lat="46.15207591" lon="7.20394009"><ele>592.30957</ele><time>2008-07-04T17:00:40Z</time></trkpt>
<trkpt lat="46.15218286" lon="7.20427293"><ele>596.635498</ele><time>2008-07-04T17:00:50Z</time></trkpt>
<trkpt lat="46.15227196" lon="7.20456320"><ele>601.922607</ele><time>2008-07-04T17:01:01Z</time></trkpt>
<trkpt lat="46.15235989" lon="7.20473981"><ele>603.845215</ele><time>2008-07-04T17:01:10Z</time></trkpt>
<trkpt lat="46.15233533" lon="7.20484206"><ele>604.806641</ele><time>2008-07-04T17:01:14Z</time></trkpt>
<trkpt lat="46.15217649" lon="7.20468038"><ele>604.806641</ele><time>2008-07-04T17:01:23Z</time></trkpt>
<trkpt lat="46.15193568" lon="7.20444359"><ele>604.326172</ele><time>2008-07-04T17:01:35Z</time></trkpt>
<trkpt lat="46.15176469" lon="7.20434510"><ele>607.209961</ele><time>2008-07-04T17:01:43Z</time></trkpt>
<trkpt lat="46.15161910" lon="7.20414561"><ele>610.574463</ele><time>2008-07-04T17:01:52Z</time></trkpt>
<trkpt lat="46.15148683" lon="7.20392676"><ele>613.458496</ele><time>2008-07-04T17:02:01Z</time></trkpt>
<trkpt lat="46.15129991" lon="7.20362585"><ele>615.381104</ele><time>2008-07-04T17:02:11Z</time></trkpt>
<trkpt lat="46.15115130" lon="7.20323718"><ele>617.78418</ele><time>2008-07-04T17:02:21Z</time></trkpt>
<trkpt lat="46.15099800" lon="7.20291037"><ele>620.187744</ele><time>2008-07-04T17:02:31Z</time></trkpt>
<trkpt lat="46.15083958" lon="7.20269672"><ele>619.707031</ele><time>2008-07-04T17:02:42Z</time></trkpt>
<trkpt lat="46.15066926" lon="7.20247736"><ele>621.629639</ele><time>2008-07-04T17:02:54Z</time></trkpt>
<trkpt lat="46.15059374" lon="7.20224015"><ele>623.071777</ele><time>2008-07-04T17:03:04Z</time></trkpt>
<trkpt lat="46.15052048" lon="7.20186456"><ele>627.397705</ele><time>2008-07-04T17:03:17Z</time></trkpt>
<trkpt lat="46.15049316" lon="7.20160196"><ele>632.204102</ele><time>2008-07-04T17:03:26Z</time></trkpt>
<trkpt lat="46.15046323" lon="7.20148017"><ele>632.204102</ele><time>2008-07-04T17:03:32Z</time></trkpt>
<trkpt lat="46.15037187" lon="7.20208735"><ele>634.607422</ele><time>2008-07-04T17:03:51Z</time></trkpt>
<trkpt lat="46.15040154" lon="7.20254551"><ele>636.049561</ele><time>2008-07-04T17:04:02Z</time></trkpt>
<trkpt lat="46.15055610" lon="7.20294650"><ele>639.414063</ele><time>2008-07-04T17:04:11Z</time></trkpt>
<trkpt lat="46.15076984" lon="7.20334246"><ele>640.375488</ele><time>2008-07-04T17:04:19Z</time></trkpt>
<trkpt lat="46.15096338" lon="7.20376013"><ele>639.414063</ele><time>2008-07-04T17:04:25Z</time></trkpt>
<trkpt lat="46.15102130" lon="7.20398149"><ele>639.414063</ele><time>2008-07-04T17:04:28Z</time></trkpt>
<trkpt lat="46.15105893" lon="7.20454996"><ele>641.33667</ele><time>2008-07-04T17:04:35Z</time></trkpt>
<trkpt lat="46.15116756" lon="7.20477643"><ele>641.33667</ele><time>2008-07-04T17:04:39Z</time></trkpt>
<trkpt lat="46.15142120" lon="7.20531472"><ele>642.778809</ele><time>2008-07-04T17:04:50Z</time></trkpt>
<trkpt lat="46.15161558" lon="7.20562032"><ele>643.73999</ele><time>2008-07-04T17:04:57Z</time></trkpt>
<trkpt lat="46.15171826" lon="7.20567757"><ele>644.701172</ele><time>2008-07-04T17:05:00Z</time></trkpt>
<trkpt lat="46.15172965" lon="7.20580137"><ele>646.143311</ele><time>2008-07-04T17:05:04Z</time></trkpt>
<trkpt lat="46.15164458" lon="7.20573717"><ele>648.065918</ele><time>2008-07-04T17:05:08Z</time></trkpt>
<trkpt lat="46.15142112" lon="7.20537725"><ele>647.585205</ele><time>2008-07-04T17:05:22Z</time></trkpt>
<trkpt lat="46.15055325" lon="7.20418015"><ele>658.159912</ele><time>2008-07-04T17:06:00Z</time></trkpt>
<trkpt lat="46.15030331" lon="7.20375502"><ele>666.811523</ele><time>2008-07-04T17:06:12Z</time></trkpt>
<trkpt lat="46.15009376" lon="7.20337272"><ele>671.618164</ele><time>2008-07-04T17:06:23Z</time></trkpt>
<trkpt lat="46.14985085" lon="7.20295790"><ele>679.308594</ele><time>2008-07-04T17:06:36Z</time></trkpt>
<trkpt lat="46.14966377" lon="7.20262991"><ele>681.231445</ele><time>2008-07-04T17:06:48Z</time></trkpt>
<trkpt lat="46.14947534" lon="7.20235976"><ele>682.192627</ele><time>2008-07-04T17:06:58Z</time></trkpt>
<trkpt lat="46.14923947" lon="7.20205693"><ele>682.67334</ele><time>2008-07-04T17:07:07Z</time></trkpt>
<trkpt lat="46.14896622" lon="7.20166323"><ele>684.115479</ele><time>2008-07-04T17:07:16Z</time></trkpt>
<trkpt lat="46.14878283" lon="7.20134379"><ele>689.402588</ele><time>2008-07-04T17:07:24Z</time></trkpt>
<trkpt lat="46.14855568" lon="7.20093425"><ele>690.844482</ele><time>2008-07-04T17:07:34Z</time></trkpt>
<trkpt lat="46.14838838" lon="7.20070610"><ele>691.325195</ele><time>2008-07-04T17:07:40Z</time></trkpt>
<trkpt lat="46.14756611" lon="7.19839688"><ele>676.905518</ele><time>2008-07-04T17:07:59Z</time></trkpt>
<trkpt lat="46.14718633" lon="7.19768174"><ele>672.57959</ele><time>2008-07-04T17:08:05Z</time></trkpt>
<trkpt lat="46.14711517" lon="7.19740279"><ele>669.695801</ele><time>2008-07-04T17:08:09Z</time></trkpt>
<trkpt lat="46.14723947" lon="7.19736490"><ele>669.215088</ele><time>2008-07-04T17:08:11Z</time></trkpt>
<trkpt lat="46.14733209" lon="7.19739667"><ele>668.253662</ele><time>2008-07-04T17:08:12Z</time></trkpt>
<trkpt lat="46.14763141" lon="7.19756221"><ele>664.408203</ele><time>2008-07-04T17:08:15Z</time></trkpt>
<trkpt lat="46.14778580" lon="7.19741260"><ele>659.601807</ele><time>2008-07-04T17:08:18Z</time></trkpt>
<trkpt lat="46.14747785" lon="7.19670198"><ele>649.507813</ele><time>2008-07-04T17:08:24Z</time></trkpt>
<trkpt lat="46.14697368" lon="7.19611575"><ele>640.375488</ele><time>2008-07-04T17:08:29Z</time></trkpt>
<trkpt lat="46.14669205" lon="7.19605230"><ele>633.645996</ele><time>2008-07-04T17:08:32Z</time></trkpt>
<trkpt lat="46.14658174" lon="7.19611390"><ele>632.684814</ele><time>2008-07-04T17:08:33Z</time></trkpt>
<trkpt lat="46.14633892" lon="7.19625615"><ele>631.24292</ele><time>2008-07-04T17:08:35Z</time></trkpt>
<trkpt lat="46.14579577" lon="7.19628423"><ele>627.397705</ele><time>2008-07-04T17:08:39Z</time></trkpt>
<trkpt lat="46.14531616" lon="7.19603545"><ele>624.994385</ele><time>2008-07-04T17:08:43Z</time></trkpt>
<trkpt lat="46.14521700" lon="7.19577838"><ele>620.668457</ele><time>2008-07-04T17:08:46Z</time></trkpt>
<trkpt lat="46.14534348" lon="7.19561770"><ele>619.707031</ele><time>2008-07-04T17:08:48Z</time></trkpt>
<trkpt lat="46.14563232" lon="7.19549431"><ele>618.745605</ele><time>2008-07-04T17:08:51Z</time></trkpt>
<trkpt lat="46.14586132" lon="7.19527773"><ele>617.78418</ele><time>2008-07-04T17:08:54Z</time></trkpt>
<trkpt lat="46.14594178" lon="7.19500733"><ele>617.303711</ele><time>2008-07-04T17:08:57Z</time></trkpt>
<trkpt lat="46.14591689" lon="7.19493859"><ele>618.264893</ele><time>2008-07-04T17:08:59Z</time></trkpt>
<trkpt lat="46.14578395" lon="7.19488353"><ele>616.342285</ele><time>2008-07-04T17:09:07Z</time></trkpt>
<trkpt lat="46.14564716" lon="7.19504069"><ele>614.900391</ele><time>2008-07-04T17:09:15Z</time></trkpt>
<trkpt lat="46.14543300" lon="7.19526683"><ele>612.49707</ele><time>2008-07-04T17:09:27Z</time></trkpt>
<trkpt lat="46.14523938" lon="7.19540413"><ele>616.822998</ele><time>2008-07-04T17:09:39Z</time></trkpt>
<trkpt lat="46.14509177" lon="7.19554586"><ele>619.707031</ele><time>2008-07-04T17:09:50Z</time></trkpt>
<trkpt lat="46.14500200" lon="7.19561895"><ele>621.629639</ele><time>2008-07-04T17:09:57Z</time></trkpt>
<trkpt lat="46.14496747" lon="7.19547110"><ele>625.955566</ele><time>2008-07-04T17:10:05Z</time></trkpt>
<trkpt lat="46.14498583" lon="7.19516281"><ele>629.800781</ele><time>2008-07-04T17:10:18Z</time></trkpt>
<trkpt lat="46.14496579" lon="7.19491110"><ele>634.126709</ele><time>2008-07-04T17:10:29Z</time></trkpt>
<trkpt lat="46.14495322" lon="7.19481580"><ele>636.049561</ele><time>2008-07-04T17:10:34Z</time></trkpt>
<trkpt lat="46.14494065" lon="7.19472025"><ele>637.491455</ele><time>2008-07-04T17:10:39Z</time></trkpt>
<trkpt lat="46.14489874" lon="7.19450190"><ele>641.33667</ele><time>2008-07-04T17:10:49Z</time></trkpt>
<trkpt lat="46.14487217" lon="7.19421851"><ele>644.701172</ele><time>2008-07-04T17:11:01Z</time></trkpt>
<trkpt lat="46.14487368" lon="7.19392179"><ele>647.585205</ele><time>2008-07-04T17:11:13Z</time></trkpt>
<trkpt lat="46.14492858" lon="7.19366874"><ele>649.988525</ele><time>2008-07-04T17:11:24Z</time></trkpt>
<trkpt lat="46.14499521" lon="7.19348333"><ele>649.988525</ele><time>2008-07-04T17:11:33Z</time></trkpt>
<trkpt lat="46.14506110" lon="7.18949807"><ele>623.55249</ele><time>2008-07-04T17:12:16Z</time></trkpt>
<trkpt lat="46.14513352" lon="7.18932104"><ele>622.110352</ele><time>2008-07-04T17:12:19Z</time></trkpt>
<trkpt lat="46.14524969" lon="7.18935583"><ele>619.707031</ele><time>2008-07-04T17:12:21Z</time></trkpt>
<trkpt lat="46.14557709" lon="7.18990141"><ele>615.381104</ele><time>2008-07-04T17:12:26Z</time></trkpt>
<trkpt lat="46.14575118" lon="7.19013878"><ele>612.016602</ele><time>2008-07-04T17:12:28Z</time></trkpt>
<trkpt lat="46.14594874" lon="7.19115157"><ele>598.557861</ele><time>2008-07-04T17:12:34Z</time></trkpt>
<trkpt lat="46.14604471" lon="7.19117470"><ele>594.712646</ele><time>2008-07-04T17:12:37Z</time></trkpt>
<trkpt lat="46.14578756" lon="7.18938366"><ele>585.099609</ele><time>2008-07-04T17:12:51Z</time></trkpt>
<trkpt lat="46.14584832" lon="7.18877287"><ele>580.773682</ele><time>2008-07-04T17:12:55Z</time></trkpt>
<trkpt lat="46.14585218" lon="7.18860858"><ele>580.292969</ele><time>2008-07-04T17:12:56Z</time></trkpt>
<trkpt lat="46.14586350" lon="7.18776360"><ele>575.967041</ele><time>2008-07-04T17:13:01Z</time></trkpt>
<trkpt lat="46.14574389" lon="7.18709758"><ele>572.121826</ele><time>2008-07-04T17:13:05Z</time></trkpt>
<trkpt lat="46.14566484" lon="7.18659089"><ele>569.237793</ele><time>2008-07-04T17:13:08Z</time></trkpt>
<trkpt lat="46.14542923" lon="7.18599544"><ele>564.911865</ele><time>2008-07-04T17:13:12Z</time></trkpt>
<trkpt lat="46.14542403" lon="7.18564818"><ele>562.989258</ele><time>2008-07-04T17:13:14Z</time></trkpt>
<trkpt lat="46.14545010" lon="7.18547769"><ele>562.028076</ele><time>2008-07-04T17:13:15Z</time></trkpt>
<trkpt lat="46.14551917" lon="7.18496966"><ele>559.624756</ele><time>2008-07-04T17:13:18Z</time></trkpt>
<trkpt lat="46.14547952" lon="7.18430196"><ele>556.26001</ele><time>2008-07-04T17:13:22Z</time></trkpt>
<trkpt lat="46.14547416" lon="7.18413717"><ele>555.298584</ele><time>2008-07-04T17:13:23Z</time></trkpt>
<trkpt lat="46.14524852" lon="7.18343385"><ele>551.453369</ele><time>2008-07-04T17:13:28Z</time></trkpt>
<trkpt lat="46.14515003" lon="7.18318289"><ele>549.050049</ele><time>2008-07-04T17:13:35Z</time></trkpt>
<trkpt lat="46.14517752" lon="7.18322262"><ele>548.569336</ele><time>2008-07-04T17:13:36Z</time></trkpt>
<trkpt lat="46.14540023" lon="7.18355295"><ele>547.127441</ele><time>2008-07-04T17:13:41Z</time></trkpt>
<trkpt lat="46.14551288" lon="7.18372000"><ele>546.16626</ele><time>2008-07-04T17:13:43Z</time></trkpt>
<trkpt lat="46.14571396" lon="7.18433565"><ele>543.282104</ele><time>2008-07-04T17:13:48Z</time></trkpt>
<trkpt lat="46.14592401" lon="7.18512624"><ele>539.917603</ele><time>2008-07-04T17:13:53Z</time></trkpt>
<trkpt lat="46.14594664" lon="7.18529723"><ele>538.956299</ele><time>2008-07-04T17:13:54Z</time></trkpt>
<trkpt lat="46.14595922" lon="7.18598161"><ele>538.475708</ele><time>2008-07-04T17:13:58Z</time></trkpt>
<trkpt lat="46.14607656" lon="7.18669256"><ele>540.878906</ele><time>2008-07-04T17:14:03Z</time></trkpt>
<trkpt lat="46.14622694" lon="7.18746428"><ele>543.762817</ele><time>2008-07-04T17:14:10Z</time></trkpt>
<trkpt lat="46.14632861" lon="7.18803484"><ele>542.801514</ele><time>2008-07-04T17:14:16Z</time></trkpt>
<trkpt lat="46.14650697" lon="7.18839224"><ele>541.359497</ele><time>2008-07-04T17:14:20Z</time></trkpt>
<trkpt lat="46.14660588" lon="7.18884336"><ele>540.398315</ele><time>2008-07-04T17:14:24Z</time></trkpt>
<trkpt lat="46.14665433" lon="7.18908425"><ele>539.917603</ele><time>2008-07-04T17:14:26Z</time></trkpt>
<trkpt lat="46.14693512" lon="7.19022101"><ele>536.072388</ele><time>2008-07-04T17:14:35Z</time></trkpt>
<trkpt lat="46.14700075" lon="7.19097697"><ele>534.630371</ele><time>2008-07-04T17:14:40Z</time></trkpt>
<trkpt lat="46.14722354" lon="7.19164803"><ele>536.072388</ele><time>2008-07-04T17:14:45Z</time></trkpt>
<trkpt lat="46.14733896" lon="7.19183519"><ele>537.033691</ele><time>2008-07-04T17:14:47Z</time></trkpt>
<trkpt lat="46.14776367" lon="7.19235881"><ele>540.878906</ele><time>2008-07-04T17:14:54Z</time></trkpt>
<trkpt lat="46.14796232" lon="7.19236770"><ele>542.801514</ele><time>2008-07-04T17:14:57Z</time></trkpt>
<trkpt lat="46.14803416" lon="7.19229863"><ele>541.359497</ele><time>2008-07-04T17:14:58Z</time></trkpt>
<trkpt lat="46.14838620" lon="7.19171039"><ele>532.707764</ele><time>2008-07-04T17:15:03Z</time></trkpt>
<trkpt lat="46.14852232" lon="7.19139489"><ele>530.785156</ele><time>2008-07-04T17:15:05Z</time></trkpt>
<trkpt lat="46.14878015" lon="7.19097563"><ele>524.536499</ele><time>2008-07-04T17:15:09Z</time></trkpt>
<trkpt lat="46.14943243" lon="7.19224406"><ele>518.768555</ele><time>2008-07-04T17:15:29Z</time></trkpt>
<trkpt lat="46.14961574" lon="7.19215421"><ele>519.729858</ele><time>2008-07-04T17:15:33Z</time></trkpt>
<trkpt lat="46.14967667" lon="7.19208179"><ele>518.287842</ele><time>2008-07-04T17:15:34Z</time></trkpt>
<trkpt lat="46.15010608" lon="7.19156379"><ele>513.000732</ele><time>2008-07-04T17:15:39Z</time></trkpt>
<trkpt lat="46.15060757" lon="7.19080280"><ele>499.542236</ele><time>2008-07-04T17:15:44Z</time></trkpt>
<trkpt lat="46.15094008" lon="7.19028027"><ele>492.812988</ele><time>2008-07-04T17:15:47Z</time></trkpt>
<trkpt lat="46.15137678" lon="7.18971885"><ele>485.122437</ele><time>2008-07-04T17:15:51Z</time></trkpt>
<trkpt lat="46.15157886" lon="7.18946446"><ele>481.277222</ele><time>2008-07-04T17:15:54Z</time></trkpt>
<trkpt lat="46.15170535" lon="7.18953235"><ele>479.354492</ele><time>2008-07-04T17:15:57Z</time></trkpt>
<trkpt lat="46.15173468" lon="7.18960938"><ele>479.354492</ele><time>2008-07-04T17:15:58Z</time></trkpt>
<trkpt lat="46.15201556" lon="7.19050331"><ele>480.796631</ele><time>2008-07-04T17:16:06Z</time></trkpt>
<trkpt lat="46.15209326" lon="7.19075259"><ele>480.796631</ele><time>2008-07-04T17:16:08Z</time></trkpt>
<trkpt lat="46.15229795" lon="7.19082803"><ele>480.796631</ele><time>2008-07-04T17:16:11Z</time></trkpt>
<trkpt lat="46.15238395" lon="7.19078008"><ele>479.835083</ele><time>2008-07-04T17:16:12Z</time></trkpt>
<trkpt lat="46.15292500" lon="7.19052041"><ele>474.067261</ele><time>2008-07-04T17:16:17Z</time></trkpt>
<trkpt lat="46.15350930" lon="7.19019787"><ele>472.144653</ele><time>2008-07-04T17:16:22Z</time></trkpt>
<trkpt lat="46.15407173" lon="7.18980149"><ele>471.18335</ele><time>2008-07-04T17:16:28Z</time></trkpt>
<trkpt lat="46.15421900" lon="7.18969421"><ele>471.18335</ele><time>2008-07-04T17:16:30Z</time></trkpt>
<trkpt lat="46.15379110" lon="7.18835142"><ele>469.260742</ele><time>2008-07-04T17:16:44Z</time></trkpt>
<trkpt lat="46.15365313" lon="7.18800156"><ele>471.18335</ele><time>2008-07-04T17:16:49Z</time></trkpt>
<trkpt lat="46.15380996" lon="7.18851085"><ele>469.741333</ele><time>2008-07-04T17:17:09Z</time></trkpt>
<trkpt lat="46.15382463" lon="7.18857841"><ele>469.741333</ele><time>2008-07-04T17:17:16Z</time></trkpt>
<trkpt lat="46.15385539" lon="7.18864085"><ele>469.260742</ele><time>2008-07-04T17:17:20Z</time></trkpt>
<trkpt lat="46.15387383" lon="7.18874135"><ele>468.299316</ele><time>2008-07-04T17:17:29Z</time></trkpt>
</trkseg></trk></gpx>